createdAt,value
2019-05-02T00:00:56.786Z,15.30
2019-05-02T00:01:56.783Z,14.20
2019-05-02T00:02:59.765Z,14.90
2019-05-02T00:03:56.785Z,14.80
2019-05-02T00:04:57.109Z,15.30
2019-05-02T00:05:56.730Z,14.50
2019-05-02T00:06:56.747Z,14.40
2019-05-02T00:07:58.503Z,14.80
2019-05-02T00:08:56.732Z,15.00
2019-05-02T00:09:56.696Z,15.30
2019-05-02T00:10:56.680Z,14.90
2019-05-02T00:11:58.805Z,15.60
2019-05-02T00:12:56.649Z,15.70
2019-05-02T00:13:56.678Z,15.80
2019-05-02T00:15:01.738Z,15.40
2019-05-02T00:15:57.620Z,15.10
2019-05-02T00:16:56.619Z,15.70
2019-05-02T00:17:56.889Z,15.20
2019-05-02T00:18:56.594Z,15.70
2019-05-02T00:19:56.597Z,15.50
2019-05-02T00:20:57.152Z,15.40
2019-05-02T00:21:56.575Z,14.90
2019-05-02T00:22:56.633Z,15.60
2019-05-02T00:23:59.310Z,15.30
2019-05-02T00:24:57.554Z,15.60
2019-05-02T00:25:56.506Z,15.30
2019-05-02T00:27:01.358Z,15.00
2019-05-02T00:27:57.515Z,15.60
2019-05-02T00:28:56.474Z,15.10
2019-05-02T00:29:58.682Z,14.70
2019-05-02T00:30:56.462Z,15.10
2019-05-02T00:31:56.442Z,14.50
2019-05-02T00:32:58.243Z,14.10
2019-05-02T00:33:56.434Z,14.30
2019-05-02T00:34:56.428Z,15.00
2019-05-02T00:35:56.398Z,15.00
2019-05-02T00:36:56.378Z,15.00
2019-05-02T00:37:57.361Z,14.40
2019-05-02T00:38:57.405Z,14.70
2019-05-02T00:39:56.378Z,15.10
2019-05-02T00:40:57.489Z,14.70
2019-05-02T00:41:57.328Z,14.70
2019-05-02T00:42:58.263Z,14.30
2019-05-02T00:43:56.309Z,13.70
2019-05-02T00:44:56.314Z,14.10
2019-05-02T00:45:59.798Z,14.30
2019-05-02T00:46:56.272Z,13.70
2019-05-02T00:47:56.326Z,14.20
2019-05-02T00:48:59.632Z,14.30
2019-05-02T00:49:57.275Z,13.90
2019-05-02T00:50:56.229Z,14.00
2019-05-02T00:51:56.577Z,14.30
2019-05-02T00:52:56.215Z,14.10
2019-05-02T00:53:56.192Z,14.50
2019-05-02T00:54:58.719Z,13.60
2019-05-02T00:55:56.190Z,13.80
2019-05-02T00:56:56.164Z,14.20
2019-05-02T00:57:56.911Z,14.00
2019-05-02T00:58:56.141Z,14.60
2019-05-02T00:59:56.130Z,14.80
2019-05-02T01:00:56.138Z,13.70
2019-05-02T01:02:00.087Z,13.60
2019-05-02T01:02:57.113Z,14.50
2019-05-02T01:03:56.091Z,13.60
2019-05-02T01:04:59.253Z,13.50
2019-05-02T01:05:57.078Z,13.90
2019-05-02T01:06:56.062Z,13.60
2019-05-02T01:08:00.756Z,13.90
2019-05-02T01:08:57.029Z,14.70
2019-05-02T01:09:56.020Z,14.00
2019-05-02T01:10:56.860Z,14.00
2019-05-02T01:11:55.994Z,13.80
2019-05-02T01:12:55.985Z,13.20
2019-05-02T01:13:57.762Z,13.50
2019-05-02T01:14:55.959Z,14.10
2019-05-02T01:15:55.962Z,13.90
2019-05-02T01:16:56.279Z,13.90
2019-05-02T01:17:55.929Z,13.10
2019-05-02T01:18:55.915Z,14.50
2019-05-02T01:19:55.901Z,14.20
2019-05-02T01:20:58.135Z,13.90
2019-05-02T01:21:56.919Z,13.50
2019-05-02T01:22:55.868Z,14.10
2019-05-02T01:23:58.947Z,13.50
2019-05-02T01:24:56.863Z,13.70
2019-05-02T01:25:55.841Z,13.30
2019-05-02T01:26:59.841Z,14.10
2019-05-02T01:27:56.814Z,13.90
2019-05-02T01:28:55.808Z,14.20
2019-05-02T01:29:55.796Z,13.80
2019-05-02T01:30:55.790Z,13.80
2019-05-02T01:31:55.902Z,14.30
2019-05-02T01:32:55.766Z,13.90
2019-05-02T01:33:55.750Z,13.80
2019-05-02T01:34:56.394Z,13.80
2019-05-02T01:35:55.728Z,13.70
2019-05-02T01:36:55.714Z,13.40
2019-05-02T01:37:56.132Z,13.60
2019-05-02T01:38:55.710Z,13.20
2019-05-02T01:39:55.686Z,13.80
2019-05-02T01:40:55.672Z,14.40
2019-05-02T01:42:00.068Z,14.90
2019-05-02T01:42:56.670Z,14.30
2019-05-02T01:44:00.142Z,14.00
2019-05-02T01:44:56.692Z,14.10
2019-05-02T01:45:55.616Z,14.10
2019-05-02T01:46:58.713Z,14.00
2019-05-02T01:47:55.620Z,13.50
2019-05-02T01:48:55.670Z,14.00
2019-05-02T01:49:57.329Z,14.50
2019-05-02T01:50:55.561Z,14.80
2019-05-02T01:51:55.547Z,13.50
2019-05-02T01:52:58.677Z,14.00
2019-05-02T01:53:55.527Z,13.90
2019-05-02T01:54:55.524Z,14.60
2019-05-02T01:55:57.277Z,15.10
2019-05-02T01:56:55.504Z,14.60
2019-05-02T01:57:55.518Z,14.60
2019-05-02T01:58:57.787Z,14.90
2019-05-02T01:59:55.462Z,14.90
2019-05-02T02:00:55.464Z,14.90
2019-05-02T02:01:57.897Z,14.50
2019-05-02T02:02:55.433Z,15.20
2019-05-02T02:03:55.457Z,15.60
2019-05-02T02:04:56.944Z,15.40
2019-05-02T02:05:55.401Z,15.30
2019-05-02T02:06:55.385Z,14.70
2019-05-02T02:07:57.203Z,14.70
2019-05-02T02:08:55.389Z,14.90
2019-05-02T02:09:55.350Z,15.10
2019-05-02T02:10:57.868Z,14.70
2019-05-02T02:11:55.338Z,14.60
2019-05-02T02:13:03.417Z,15.20
2019-05-02T02:13:56.333Z,14.50
2019-05-02T02:14:55.574Z,14.60
2019-05-02T02:15:55.281Z,15.20
2019-05-02T02:16:55.278Z,15.20
2019-05-02T02:17:55.271Z,15.00
2019-05-02T02:18:59.084Z,14.90
2019-05-02T02:19:56.252Z,15.30
2019-05-02T02:20:55.229Z,15.10
2019-05-02T02:21:57.404Z,15.00
2019-05-02T02:22:56.198Z,15.50
2019-05-02T02:23:55.217Z,14.60
2019-05-02T02:24:55.882Z,14.10
2019-05-02T02:25:56.168Z,14.50
2019-05-02T02:26:55.170Z,14.70
2019-05-02T02:27:59.721Z,14.80
2019-05-02T02:28:56.134Z,13.90
2019-05-02T02:29:55.153Z,14.90
2019-05-02T02:30:58.043Z,14.30
2019-05-02T02:31:56.120Z,14.30
2019-05-02T02:33:00.522Z,14.00
2019-05-02T02:33:56.079Z,14.90
2019-05-02T02:34:55.098Z,14.70
2019-05-02T02:35:55.061Z,14.90
2019-05-02T02:36:55.048Z,14.60
2019-05-02T02:37:55.718Z,15.10
2019-05-02T02:38:55.022Z,14.70
2019-05-02T02:39:56.476Z,14.70
2019-05-02T02:40:55.028Z,14.90
2019-05-02T02:41:55.011Z,15.50
2019-05-02T02:42:54.985Z,14.90
2019-05-02T02:44:00.495Z,14.80
2019-05-02T02:44:55.994Z,15.00
2019-05-02T02:45:58.045Z,14.80
2019-05-02T02:46:54.941Z,13.60
2019-05-02T02:47:59.930Z,14.70
2019-05-02T02:48:55.910Z,13.70
2019-05-02T02:50:02.499Z,13.50
2019-05-02T02:50:55.919Z,13.50
2019-05-02T02:51:58.181Z,12.90
2019-05-02T02:52:55.878Z,13.80
2019-05-02T02:54:03.207Z,13.40
2019-05-02T02:54:55.847Z,13.40
2019-05-02T02:56:00.746Z,12.70
2019-05-02T02:56:55.818Z,13.00
2019-05-02T02:57:58.487Z,13.50
2019-05-02T02:58:55.810Z,13.00
2019-05-02T03:00:06.396Z,12.10
2019-05-02T03:00:55.800Z,12.80
2019-05-02T03:01:54.770Z,12.40
2019-05-02T03:02:54.756Z,12.20
2019-05-02T03:03:54.752Z,12.70
2019-05-02T03:04:54.734Z,12.70
2019-05-02T03:05:58.586Z,12.90
2019-05-02T03:06:55.735Z,13.00
2019-05-02T03:07:59.668Z,12.40
2019-05-02T03:08:55.687Z,12.50
2019-05-02T03:09:59.392Z,13.40
2019-05-02T03:10:55.670Z,13.20
2019-05-02T03:11:56.308Z,13.30
2019-05-02T03:12:55.644Z,13.30
2019-05-02T03:14:06.099Z,13.30
2019-05-02T03:14:55.619Z,13.40
2019-05-02T03:16:00.344Z,13.10
2019-05-02T03:16:55.616Z,12.40
2019-05-02T03:18:00.114Z,13.30
2019-05-02T03:18:55.579Z,13.10
2019-05-02T03:20:00.950Z,13.40
2019-05-02T03:20:55.559Z,12.90
2019-05-02T03:22:00.990Z,13.30
2019-05-02T03:22:55.532Z,13.10
2019-05-02T03:24:03.068Z,13.80
2019-05-02T03:24:55.526Z,13.50
2019-05-02T03:25:54.500Z,13.40
2019-05-02T03:26:55.422Z,13.20
2019-05-02T03:27:54.477Z,13.90
2019-05-02T03:28:58.707Z,13.00
2019-05-02T03:29:55.452Z,12.90
2019-05-02T03:30:54.446Z,13.60
2019-05-02T03:32:11.790Z,13.00
2019-05-02T03:33:09.828Z,13.10
2019-05-02T03:34:00.332Z,13.20
2019-05-02T03:34:55.402Z,12.70
2019-05-02T03:35:54.415Z,12.20
2019-05-02T03:36:54.383Z,12.20
2019-05-02T03:37:54.386Z,12.70
2019-05-02T03:38:54.354Z,11.00
2019-05-02T03:40:00.251Z,12.30
2019-05-02T03:40:55.334Z,12.70
2019-05-02T03:41:55.446Z,11.50
2019-05-02T03:42:55.333Z,11.80
2019-05-02T03:44:09.928Z,11.70
2019-05-02T03:44:58.477Z,11.70
2019-05-02T03:45:54.275Z,11.40
2019-05-02T03:47:02.042Z,12.00
2019-05-02T03:47:55.279Z,11.80
2019-05-02T03:49:06.250Z,12.30
2019-05-02T03:49:55.235Z,11.10
2019-05-02T03:50:54.224Z,11.20
2019-05-02T03:51:56.019Z,12.10
2019-05-02T03:52:55.215Z,12.20
2019-05-02T03:54:06.088Z,11.70
2019-05-02T03:54:55.204Z,11.20
2019-05-02T03:55:54.171Z,11.50
2019-05-02T03:56:54.158Z,11.50
2019-05-02T03:57:54.154Z,11.60
2019-05-02T03:58:56.487Z,11.00
2019-05-02T03:59:54.118Z,11.70
2019-05-02T04:01:00.258Z,11.60
2019-05-02T04:01:55.103Z,10.90
2019-05-02T04:03:00.825Z,10.90
2019-05-02T04:03:55.086Z,10.80
2019-05-02T04:05:00.024Z,11.20
2019-05-02T04:05:55.059Z,10.80
2019-05-02T04:06:54.847Z,10.90
2019-05-02T04:07:55.051Z,11.40
2019-05-02T04:08:59.948Z,10.20
2019-05-02T04:09:55.008Z,10.90
2019-05-02T04:10:59.405Z,11.90
2019-05-02T04:11:54.988Z,10.70
2019-05-02T04:12:58.325Z,11.10
2019-05-02T04:13:54.989Z,10.90
2019-05-02T04:14:56.026Z,10.90
2019-05-02T04:15:53.944Z,10.70
2019-05-02T04:16:55.110Z,11.00
2019-05-02T04:17:53.945Z,10.80
2019-05-02T04:18:55.632Z,11.00
2019-05-02T04:19:53.927Z,10.00
2019-05-02T04:20:53.898Z,11.30
2019-05-02T04:21:54.955Z,11.50
2019-05-02T04:22:53.865Z,11.00
2019-05-02T04:23:54.056Z,11.30
2019-05-02T04:24:54.711Z,10.80
2019-05-02T04:25:53.828Z,10.20
2019-05-02T04:26:56.319Z,11.10
2019-05-02T04:27:53.809Z,11.50
2019-05-02T04:28:53.910Z,11.20
2019-05-02T04:29:53.782Z,10.40
2019-05-02T04:30:54.018Z,10.70
2019-05-02T04:31:53.764Z,10.30
2019-05-02T04:32:56.000Z,10.40
2019-05-02T04:33:53.759Z,10.60
2019-05-02T04:34:55.310Z,10.50
2019-05-02T04:35:53.720Z,11.00
2019-05-02T04:37:00.742Z,11.00
2019-05-02T04:37:54.704Z,10.50
2019-05-02T04:38:53.701Z,10.90
2019-05-02T04:39:57.873Z,10.80
2019-05-02T04:40:54.665Z,10.60
2019-05-02T04:41:53.650Z,10.50
2019-05-02T04:43:01.954Z,11.10
2019-05-02T04:43:57.807Z,11.00
2019-05-02T04:45:13.819Z,10.80
2019-05-02T04:45:57.412Z,10.50
2019-05-02T04:46:59.904Z,10.30
2019-05-02T04:48:00.924Z,10.40
2019-05-02T04:48:54.616Z,10.30
2019-05-02T04:49:53.566Z,9.90
2019-05-02T04:50:59.706Z,9.90
2019-05-02T04:52:04.704Z,10.10
2019-05-02T04:52:54.555Z,9.40
2019-05-02T04:53:53.541Z,10.30
2019-05-02T04:55:00.498Z,10.20
2019-05-02T04:56:01.914Z,9.80
2019-05-02T04:56:55.392Z,10.80
2019-05-02T04:57:53.481Z,10.30
2019-05-02T04:58:53.494Z,9.70
2019-05-02T05:00:04.986Z,10.60
2019-05-02T05:00:59.232Z,10.30
2019-05-02T05:01:57.505Z,10.30
2019-05-02T05:02:54.416Z,10.50
2019-05-02T05:03:58.369Z,9.90
2019-05-02T05:04:54.400Z,10.40
2019-05-02T05:05:53.391Z,11.30
2019-05-02T05:06:58.113Z,10.40
2019-05-02T05:07:54.363Z,10.90
2019-05-02T05:08:53.362Z,10.50
2019-05-02T05:09:58.176Z,11.10
2019-05-02T05:10:54.328Z,10.90
2019-05-02T05:11:53.886Z,10.70
2019-05-02T05:12:53.302Z,10.40
2019-05-02T05:13:57.587Z,10.20
2019-05-02T05:14:54.277Z,10.70
2019-05-02T05:15:53.272Z,10.30
2019-05-02T05:16:55.726Z,9.80
2019-05-02T05:17:53.250Z,10.50
2019-05-02T05:18:53.360Z,9.90
2019-05-02T05:19:53.229Z,10.10
2019-05-02T05:20:54.287Z,9.60
2019-05-02T05:21:58.804Z,9.60
2019-05-02T05:22:54.191Z,10.00
2019-05-02T05:23:59.628Z,9.20
2019-05-02T05:24:54.191Z,9.10
2019-05-02T05:25:55.680Z,9.50
2019-05-02T05:26:54.163Z,9.40
2019-05-02T05:27:58.795Z,9.30
2019-05-02T05:28:54.146Z,9.50
2019-05-02T05:29:53.789Z,9.00
2019-05-02T05:30:54.100Z,8.60
2019-05-02T05:31:55.075Z,8.50
2019-05-02T05:32:54.080Z,8.40
2019-05-02T05:33:53.066Z,8.50
2019-05-02T05:34:53.555Z,7.80
2019-05-02T05:35:53.049Z,8.00
2019-05-02T05:36:53.042Z,8.60
2019-05-02T05:37:53.449Z,8.60
2019-05-02T05:38:53.021Z,8.20
2019-05-02T05:39:53.029Z,8.20
2019-05-02T05:40:52.997Z,7.90
2019-05-02T05:41:52.983Z,7.70
2019-05-02T05:42:52.972Z,7.60
2019-05-02T05:43:53.656Z,7.70
2019-05-02T05:44:52.967Z,7.90
2019-05-02T05:45:56.601Z,7.80
2019-05-02T05:46:53.930Z,8.00
2019-05-02T05:47:57.484Z,8.00
2019-05-02T05:48:53.904Z,8.10
2019-05-02T05:49:57.665Z,7.70
2019-05-02T05:50:53.882Z,7.90
2019-05-02T05:51:54.401Z,7.80
2019-05-02T05:52:53.858Z,7.80
2019-05-02T05:53:59.097Z,8.20
2019-05-02T05:54:53.856Z,7.90
2019-05-02T05:55:53.649Z,9.00
2019-05-02T05:56:53.812Z,8.10
2019-05-02T05:57:59.928Z,8.20
2019-05-02T05:58:53.807Z,8.60
2019-05-02T05:59:52.804Z,7.90
2019-05-02T06:00:55.343Z,7.60
2019-05-02T06:01:52.757Z,7.30
2019-05-02T06:02:56.792Z,7.70
2019-05-02T06:03:53.736Z,8.00
2019-05-02T06:04:55.176Z,7.80
2019-05-02T06:05:53.708Z,7.70
2019-05-02T06:06:58.349Z,8.00
2019-05-02T06:07:53.696Z,7.40
2019-05-02T06:08:54.036Z,7.60
2019-05-02T06:09:52.689Z,7.80
2019-05-02T06:10:52.660Z,7.10
2019-05-02T06:11:55.440Z,7.90
2019-05-02T06:12:52.633Z,7.60
2019-05-02T06:13:52.626Z,8.00
2019-05-02T06:14:56.338Z,7.60
2019-05-02T06:16:02.229Z,7.70
2019-05-02T06:16:53.587Z,8.00
2019-05-02T06:17:52.580Z,8.40
2019-05-02T06:18:52.570Z,7.80
2019-05-02T06:19:53.582Z,8.50
2019-05-02T06:20:52.567Z,8.40
2019-05-02T06:21:52.533Z,7.60
2019-05-02T06:22:55.033Z,8.20
2019-05-02T06:23:53.507Z,8.20
2019-05-02T06:24:52.505Z,8.10
2019-05-02T06:25:52.515Z,9.10
2019-05-02T06:26:52.483Z,8.20
2019-05-02T06:27:52.468Z,7.90
2019-05-02T06:28:52.449Z,7.90
2019-05-02T06:29:56.075Z,7.60
2019-05-02T06:30:52.470Z,8.50
2019-05-02T06:31:52.424Z,7.80
2019-05-02T06:32:54.917Z,8.20
2019-05-02T06:33:52.401Z,8.20
2019-05-02T06:34:52.387Z,8.40
2019-05-02T06:36:01.022Z,8.60
2019-05-02T06:36:53.365Z,8.20
2019-05-02T06:37:52.363Z,8.80
2019-05-02T06:38:56.458Z,8.80
2019-05-02T06:39:53.336Z,8.80
2019-05-02T06:40:52.346Z,8.20
2019-05-02T06:41:57.472Z,8.60
2019-05-02T06:42:53.305Z,8.80
2019-05-02T06:43:52.289Z,8.90
2019-05-02T06:44:54.925Z,9.30
2019-05-02T06:45:53.288Z,9.10
2019-05-02T06:46:52.258Z,9.80
2019-05-02T06:47:52.250Z,8.90
2019-05-02T06:48:52.555Z,9.10
2019-05-02T06:49:56.096Z,9.20
2019-05-02T06:50:53.243Z,9.00
2019-05-02T06:51:56.259Z,9.20
2019-05-02T06:52:53.186Z,9.50
2019-05-02T06:53:52.176Z,8.80
2019-05-02T06:54:54.105Z,9.20
2019-05-02T06:55:53.155Z,9.30
2019-05-02T06:56:52.158Z,10.00
2019-05-02T06:57:57.114Z,9.90
2019-05-02T06:58:53.118Z,9.80
2019-05-02T06:59:54.662Z,9.80
2019-05-02T07:00:58.214Z,10.20
2019-05-02T07:01:57.431Z,9.50
2019-05-02T07:02:53.076Z,9.80
2019-05-02T07:03:52.073Z,9.90
2019-05-02T07:04:54.695Z,9.80
2019-05-02T07:05:52.050Z,9.70
2019-05-02T07:06:58.645Z,9.50
2019-05-02T07:07:53.047Z,10.20
2019-05-02T07:08:52.034Z,10.00
2019-05-02T07:09:52.006Z,9.40
2019-05-02T07:10:56.123Z,9.90
2019-05-02T07:11:57.260Z,10.00
2019-05-02T07:13:02.242Z,9.70
2019-05-02T07:13:52.951Z,9.70
2019-05-02T07:14:56.016Z,10.10
2019-05-02T07:15:52.933Z,10.10
2019-05-02T07:16:54.602Z,9.80
2019-05-02T07:17:51.935Z,10.20
2019-05-02T07:18:51.898Z,9.90
2019-05-02T07:19:51.890Z,10.00
2019-05-02T07:20:51.880Z,9.80
2019-05-02T07:21:53.190Z,9.90
2019-05-02T07:22:52.877Z,9.70
2019-05-02T07:23:53.663Z,10.10
2019-05-02T07:24:51.839Z,9.90
2019-05-02T07:25:51.831Z,9.90
2019-05-02T07:26:52.154Z,10.30
2019-05-02T07:27:51.831Z,10.90
2019-05-02T07:28:51.802Z,9.80
2019-05-02T07:29:57.132Z,10.50
2019-05-02T07:30:54.632Z,10.90
2019-05-02T07:31:53.511Z,10.50
2019-05-02T07:32:51.747Z,10.70
2019-05-02T07:33:51.762Z,10.90
2019-05-02T07:34:51.718Z,10.50
2019-05-02T07:35:55.213Z,11.10
2019-05-02T07:36:52.718Z,11.10
2019-05-02T07:37:51.718Z,11.40
2019-05-02T07:38:51.690Z,11.40
2019-05-02T07:39:51.693Z,11.20
2019-05-02T07:40:52.959Z,10.70
2019-05-02T07:41:51.706Z,10.60
2019-05-02T07:42:51.763Z,10.40
2019-05-02T07:43:52.175Z,10.90
2019-05-02T07:44:51.743Z,11.70
2019-05-02T07:45:51.740Z,10.80
2019-05-02T07:46:52.376Z,10.60
2019-05-02T07:47:52.573Z,11.70
2019-05-02T07:48:54.451Z,11.10
2019-05-02T07:49:51.555Z,11.30
2019-05-02T07:50:51.917Z,11.60
2019-05-02T07:51:52.238Z,11.40
2019-05-02T07:52:52.530Z,11.30
2019-05-02T07:53:51.511Z,11.30
2019-05-02T07:54:51.530Z,10.70
2019-05-02T07:55:51.494Z,11.20
2019-05-02T07:56:53.296Z,11.50
2019-05-02T07:57:51.476Z,11.80
2019-05-02T07:58:51.463Z,11.20
2019-05-02T07:59:54.992Z,11.30
2019-05-02T08:00:52.430Z,11.60
2019-05-02T08:01:51.418Z,11.70
2019-05-02T08:02:51.427Z,11.20
2019-05-02T08:03:51.403Z,11.30
2019-05-02T08:04:51.406Z,11.10
2019-05-02T08:05:54.406Z,11.50
2019-05-02T08:06:52.366Z,12.00
2019-05-02T08:07:53.268Z,11.20
2019-05-02T08:08:51.346Z,11.70
2019-05-02T08:09:51.349Z,11.70
2019-05-02T08:10:53.866Z,11.60
2019-05-02T08:11:52.308Z,11.80
2019-05-02T08:12:51.299Z,12.00
2019-05-02T08:13:55.681Z,12.10
2019-05-02T08:14:52.298Z,12.20
2019-05-02T08:15:52.418Z,12.00
2019-05-02T08:17:04.409Z,12.10
2019-05-02T08:17:53.758Z,12.30
2019-05-02T08:18:51.241Z,12.80
2019-05-02T08:19:51.216Z,11.90
2019-05-02T08:20:56.018Z,13.20
2019-05-02T08:21:52.202Z,12.40
2019-05-02T08:22:51.183Z,12.30
2019-05-02T08:23:51.171Z,12.90
2019-05-02T08:24:51.162Z,12.30
2019-05-02T08:25:51.171Z,12.30
2019-05-02T08:26:53.458Z,11.90
2019-05-02T08:27:52.130Z,12.50
2019-05-02T08:28:51.857Z,13.40
2019-05-02T08:29:51.111Z,13.70
2019-05-02T08:30:51.160Z,12.70
2019-05-02T08:31:51.087Z,13.20
2019-05-02T08:32:51.098Z,12.80
2019-05-02T08:33:51.073Z,13.00
2019-05-02T08:34:51.958Z,13.30
2019-05-02T08:35:51.038Z,12.00
2019-05-02T08:36:51.056Z,13.40
2019-05-02T08:37:51.021Z,12.80
2019-05-02T08:38:53.673Z,12.70
2019-05-02T08:39:51.008Z,13.30
2019-05-02T08:40:50.983Z,14.00
2019-05-02T08:41:51.361Z,13.40
2019-05-02T08:42:50.965Z,13.20
2019-05-02T08:43:50.955Z,13.40
2019-05-02T08:45:52.033Z,12.90
2019-05-02T08:46:51.510Z,13.50
2019-05-02T08:48:11.908Z,14.10
2019-05-02T08:48:50.970Z,13.80
2019-05-02T08:49:54.778Z,14.00
2019-05-02T08:50:51.878Z,15.30
2019-05-02T08:51:50.882Z,13.60
2019-05-02T08:52:50.856Z,14.30
2019-05-02T08:53:52.006Z,14.50
2019-05-02T08:54:51.826Z,13.90
2019-05-02T08:55:50.819Z,14.30
2019-05-02T08:56:53.209Z,13.90
2019-05-02T08:57:51.799Z,14.60
2019-05-02T08:58:51.156Z,14.70
2019-05-02T08:59:50.777Z,14.70
2019-05-02T09:00:50.764Z,14.90
2019-05-02T09:01:51.460Z,14.40
2019-05-02T09:02:50.760Z,14.60
2019-05-02T09:03:54.982Z,15.30
2019-05-02T09:04:58.327Z,15.20
2019-05-02T09:05:51.710Z,14.30
2019-05-02T09:06:53.205Z,15.10
2019-05-02T09:07:51.709Z,14.60
2019-05-02T09:08:51.257Z,14.80
2019-05-02T09:09:50.666Z,14.80
2019-05-02T09:10:50.653Z,14.80
2019-05-02T09:12:03.259Z,16.00
2019-05-02T09:12:52.132Z,15.00
2019-05-02T09:13:52.474Z,14.70
2019-05-02T09:14:52.074Z,14.50
2019-05-02T09:15:53.619Z,14.80
2019-05-02T09:16:52.351Z,15.00
2019-05-02T09:17:56.067Z,14.90
2019-05-02T09:18:54.108Z,14.40
2019-05-02T09:20:00.430Z,14.60
2019-05-02T09:20:55.390Z,15.20
2019-05-02T09:21:52.539Z,15.20
2019-05-02T09:22:54.116Z,14.80
2019-05-02T09:23:51.869Z,14.40
2019-05-02T09:24:52.028Z,15.60
2019-05-02T09:25:51.924Z,14.60
2019-05-02T09:26:51.936Z,15.00
2019-05-02T09:27:52.478Z,15.40
2019-05-02T09:28:51.709Z,14.70
2019-05-02T09:29:51.907Z,14.40
2019-05-02T09:30:52.296Z,15.20
2019-05-02T09:31:52.516Z,15.00
2019-05-02T09:32:52.150Z,14.80
2019-05-02T09:33:52.032Z,16.10
2019-05-02T09:34:51.846Z,15.40
2019-05-02T09:35:51.576Z,15.80
2019-05-02T09:36:50.373Z,14.80
2019-05-02T09:37:52.214Z,15.30
2019-05-02T09:38:56.002Z,14.90
2019-05-02T09:39:52.485Z,16.00
2019-05-02T09:40:54.616Z,15.50
2019-05-02T09:41:52.729Z,16.00
2019-05-02T09:42:53.531Z,16.00
2019-05-02T09:43:52.379Z,15.10
2019-05-02T09:44:55.941Z,15.60
2019-05-02T09:45:51.990Z,16.00
2019-05-02T09:46:53.089Z,15.70
2019-05-02T09:47:59.552Z,15.00
2019-05-02T09:48:51.979Z,15.90
2019-05-02T09:49:52.561Z,15.40
2019-05-02T09:50:50.205Z,16.00
2019-05-02T09:51:58.371Z,15.60
2019-05-02T09:52:52.414Z,15.60
2019-05-02T09:53:52.218Z,15.80
2019-05-02T09:54:51.851Z,15.80
2019-05-02T09:55:55.134Z,15.20
2019-05-02T09:56:52.391Z,15.90
2019-05-02T09:57:51.946Z,15.10
2019-05-02T09:58:55.304Z,15.90
2019-05-02T09:59:55.693Z,15.20
2019-05-02T10:00:52.335Z,15.70
2019-05-02T10:01:50.092Z,16.20
2019-05-02T10:02:52.153Z,15.80
2019-05-02T10:03:51.863Z,15.90
2019-05-02T10:04:50.058Z,16.00
2019-05-02T10:05:52.167Z,16.10
2019-05-02T10:06:52.256Z,16.10
2019-05-02T10:07:50.025Z,15.60
2019-05-02T10:08:52.011Z,16.00
2019-05-02T10:09:51.850Z,16.00
2019-05-02T10:10:52.042Z,16.30
2019-05-02T10:11:49.976Z,15.70
2019-05-02T10:12:52.039Z,15.70
2019-05-02T10:13:51.727Z,15.30
2019-05-02T10:14:49.964Z,16.30
2019-05-02T10:15:49.927Z,15.60
2019-05-02T10:16:49.936Z,15.70
2019-05-02T10:17:51.780Z,16.30
2019-05-02T10:18:52.140Z,16.70
2019-05-02T10:19:54.917Z,16.40
2019-05-02T10:20:52.404Z,16.70
2019-05-02T10:21:52.441Z,16.20
2019-05-02T10:22:52.961Z,16.20
2019-05-02T10:23:51.789Z,15.90
2019-05-02T10:24:51.985Z,15.80
2019-05-02T10:25:51.956Z,15.80
2019-05-02T10:26:49.806Z,16.30
2019-05-02T10:27:49.799Z,16.10
2019-05-02T10:28:51.213Z,16.20
2019-05-02T10:29:49.794Z,15.80
2019-05-02T10:30:52.516Z,16.30
2019-05-02T10:31:52.624Z,16.20
2019-05-02T10:32:55.567Z,15.30
2019-05-02T10:33:52.755Z,15.80
2019-05-02T10:34:55.257Z,16.20
2019-05-02T10:35:52.449Z,15.20
2019-05-02T10:36:54.136Z,16.00
2019-05-02T10:37:52.115Z,16.80
2019-05-02T10:38:54.976Z,15.90
2019-05-02T10:39:52.526Z,16.20
2019-05-02T10:40:54.775Z,16.10
2019-05-02T10:41:52.505Z,16.70
2019-05-02T10:42:49.632Z,16.30
2019-05-02T10:43:51.961Z,16.90
2019-05-02T10:44:52.134Z,15.80
2019-05-02T10:45:52.796Z,16.60
2019-05-02T10:46:52.302Z,16.50
2019-05-02T10:47:49.562Z,16.60
2019-05-02T10:48:49.577Z,16.30
2019-05-02T10:49:49.583Z,16.30
2019-05-02T10:50:49.549Z,16.10
2019-05-02T10:51:51.867Z,16.20
2019-05-02T10:52:49.535Z,17.00
2019-05-02T10:53:52.703Z,16.40
2019-05-02T10:54:52.692Z,16.10
2019-05-02T10:55:49.483Z,16.50
2019-05-02T10:56:49.474Z,16.40
2019-05-02T10:57:49.462Z,16.60
2019-05-02T10:58:49.441Z,17.20
2019-05-02T10:59:49.436Z,16.70
2019-05-02T11:00:49.440Z,16.10
2019-05-02T11:01:49.426Z,16.70
2019-05-02T11:02:49.409Z,17.00
2019-05-02T11:03:51.554Z,16.60
2019-05-02T11:04:49.376Z,16.60
2019-05-02T11:05:49.386Z,16.50
2019-05-02T11:06:49.370Z,16.30
2019-05-02T11:07:49.349Z,16.30
2019-05-02T11:08:49.344Z,16.40
2019-05-02T11:09:49.350Z,16.60
2019-05-02T11:10:49.336Z,16.90
2019-05-02T11:11:49.306Z,16.30
2019-05-02T11:12:49.286Z,16.10
2019-05-02T11:13:53.329Z,16.70
2019-05-02T11:14:51.650Z,15.90
2019-05-02T11:15:49.291Z,16.20
2019-05-02T11:16:49.246Z,17.00
2019-05-02T11:17:49.230Z,17.00
2019-05-02T11:18:49.230Z,16.40
2019-05-02T11:19:49.238Z,16.70
2019-05-02T11:20:49.221Z,16.40
2019-05-02T11:21:56.268Z,15.90
2019-05-02T11:22:52.606Z,16.40
2019-05-02T11:23:49.264Z,16.90
2019-05-02T11:24:49.175Z,15.70
2019-05-02T11:25:49.165Z,16.70
2019-05-02T11:26:49.138Z,16.90
2019-05-02T11:27:49.126Z,17.10
2019-05-02T11:28:49.121Z,16.70
2019-05-02T11:29:49.110Z,16.50
2019-05-02T11:30:49.155Z,15.80
2019-05-02T11:31:49.122Z,16.00
2019-05-02T11:32:49.092Z,16.00
2019-05-02T11:33:49.072Z,16.00
2019-05-02T11:34:49.078Z,15.90
2019-05-02T11:35:51.130Z,15.80
2019-05-02T11:36:49.049Z,16.50
2019-05-02T11:37:49.048Z,16.50
2019-05-02T11:38:55.172Z,16.10
2019-05-02T11:39:54.211Z,15.80
2019-05-02T11:40:51.959Z,16.30
2019-05-02T11:41:48.964Z,15.50
2019-05-02T11:42:49.002Z,15.30
2019-05-02T11:43:48.964Z,16.50
2019-05-02T11:44:48.981Z,15.50
2019-05-02T11:45:49.093Z,15.40
2019-05-02T11:46:48.923Z,16.00
2019-05-02T11:47:48.909Z,15.70
2019-05-02T11:48:56.422Z,15.90
2019-05-02T11:49:52.156Z,15.40
2019-05-02T11:50:52.109Z,16.00
2019-05-02T11:51:52.590Z,17.00
2019-05-02T11:52:52.118Z,16.10
2019-05-02T11:53:48.853Z,16.00
2019-05-02T11:54:48.973Z,15.20
2019-05-02T11:55:48.858Z,16.50
2019-05-02T11:56:50.426Z,15.60
2019-05-02T11:57:48.819Z,16.00
2019-05-02T11:58:50.271Z,16.00
2019-05-02T11:59:48.771Z,15.80
2019-05-02T12:00:49.736Z,16.80
2019-05-02T12:01:57.660Z,15.90
2019-05-02T12:02:54.208Z,16.80
2019-05-02T12:03:52.231Z,16.10
2019-05-02T12:04:53.915Z,16.00
2019-05-02T12:05:48.732Z,16.20
2019-05-02T12:06:49.934Z,15.90
2019-05-02T12:07:49.689Z,16.20
2019-05-02T12:08:49.530Z,15.90
2019-05-02T12:09:52.055Z,16.10
2019-05-02T12:10:48.645Z,16.20
2019-05-02T12:11:54.978Z,16.60
2019-05-02T12:12:49.619Z,16.70
2019-05-02T12:13:52.748Z,15.50
2019-05-02T12:14:49.601Z,15.30
2019-05-02T12:15:48.591Z,16.10
2019-05-02T12:16:48.597Z,17.00
2019-05-02T12:17:48.580Z,16.50
2019-05-02T12:18:48.552Z,16.10
2019-05-02T12:19:48.543Z,15.40
2019-05-02T12:20:48.528Z,15.90
2019-05-02T12:21:48.533Z,15.50
2019-05-02T12:22:48.509Z,15.50
2019-05-02T12:23:48.496Z,15.00
2019-05-02T12:24:48.486Z,16.10
2019-05-02T12:25:48.478Z,16.40
2019-05-02T12:26:48.498Z,14.90
2019-05-02T12:27:48.465Z,15.80
2019-05-02T12:28:48.442Z,15.90
2019-05-02T12:29:50.282Z,16.20
2019-05-02T12:30:51.729Z,15.50
2019-05-02T12:31:54.781Z,16.10
2019-05-02T12:32:49.423Z,15.20
2019-05-02T12:33:48.385Z,16.10
2019-05-02T12:34:48.381Z,15.80
2019-05-02T12:35:48.365Z,15.90
2019-05-02T12:36:48.353Z,15.50
2019-05-02T12:37:52.237Z,16.70
2019-05-02T12:38:49.341Z,15.70
2019-05-02T12:39:48.319Z,15.70
2019-05-02T12:40:48.307Z,15.50
2019-05-02T12:41:48.709Z,16.20
2019-05-02T12:42:48.312Z,15.70
2019-05-02T12:43:48.276Z,17.00
2019-05-02T12:44:48.267Z,15.30
2019-05-02T12:45:48.257Z,15.50
2019-05-02T12:46:48.240Z,16.10
2019-05-02T12:47:48.650Z,16.10
2019-05-02T12:48:48.221Z,15.80
2019-05-02T12:49:48.208Z,16.00
2019-05-02T12:50:48.195Z,16.30
2019-05-02T12:51:48.187Z,16.00
2019-05-02T12:52:48.233Z,15.00
2019-05-02T12:53:48.181Z,15.70
2019-05-02T12:54:48.151Z,16.00
2019-05-02T12:55:48.148Z,16.10
2019-05-02T12:56:48.128Z,15.20
2019-05-02T12:57:48.123Z,15.70